sensor_id;sensor_type;location;lat;lon;timestamp;P1;durP1;ratioP1;P2;durP2;ratioP2
77152;SDS011;66124;51.146;17.072;2023-05-09T00:01:06;5.60;;;3.30;;
77152;SDS011;66124;51.146;17.072;2023-05-09T00:03:37;4.80;;;3.20;;
77152;SDS011;66124;51.146;17.072;2023-05-09T00:06:07;5.60;;;3.60;;
77152;SDS011;66124;51.146;17.072;2023-05-09T00:08:37;6.40;;;3.70;;
77152;SDS011;66124;51.146;17.072;2023-05-09T00:11:06;6.10;;;3.80;;
77152;SDS011;66124;51.146;17.072;2023-05-09T00:13:35;6.00;;;3.20;;
77152;SDS011;66124;51.146;17.072;2023-05-09T00:16:05;6.20;;;3.40;;
77152;SDS011;66124;51.146;17.072;2023-05-09T00:18:35;5.90;;;3.50;;
77152;SDS011;66124;51.146;17.072;2023-05-09T00:21:05;6.80;;;3.40;;
77152;SDS011;66124;51.146;17.072;2023-05-09T00:23:34;5.40;;;3.50;;
77152;SDS011;66124;51.146;17.072;2023-05-09T00:26:04;5.50;;;3.30;;
77152;SDS011;66124;51.146;17.072;2023-05-09T00:28:33;4.30;;;3.00;;
77152;SDS011;66124;51.146;17.072;2023-05-09T00:31:03;6.40;;;3.20;;
77152;SDS011;66124;51.146;17.072;2023-05-09T00:33:32;6.80;;;3.60;;
77152;SDS011;66124;51.146;17.072;2023-05-09T00:36:02;4.70;;;3.40;;
77152;SDS011;66124;51.146;17.072;2023-05-09T00:38:32;5.70;;;3.40;;
77152;SDS011;66124;51.146;17.072;2023-05-09T00:41:01;4.90;;;3.30;;
77152;SDS011;66124;51.146;17.072;2023-05-09T00:43:31;5.80;;;3.50;;
77152;SDS011;66124;51.146;17.072;2023-05-09T00:46:01;5.70;;;3.50;;
77152;SDS011;66124;51.146;17.072;2023-05-09T00:48:30;8.20;;;3.50;;
77152;SDS011;66124;51.146;17.072;2023-05-09T00:51:00;5.40;;;3.70;;
77152;SDS011;66124;51.146;17.072;2023-05-09T00:53:29;9.00;;;4.00;;
77152;SDS011;66124;51.146;17.072;2023-05-09T00:55:59;4.90;;;4.10;;
77152;SDS011;66124;51.146;17.072;2023-05-09T00:58:30;7.10;;;3.90;;
77152;SDS011;66124;51.146;17.072;2023-05-09T01:00:59;7.60;;;3.70;;
77152;SDS011;66124;51.146;17.072;2023-05-09T01:03:29;7.40;;;3.70;;
77152;SDS011;66124;51.146;17.072;2023-05-09T01:06:01;6.40;;;3.90;;
77152;SDS011;66124;51.146;17.072;2023-05-09T01:08:43;6.10;;;3.40;;
77152;SDS011;66124;51.146;17.072;2023-05-09T01:11:19;6.20;;;3.10;;
77152;SDS011;66124;51.146;17.072;2023-05-09T01:16:52;7.70;;;4.10;;
77152;SDS011;66124;51.146;17.072;2023-05-09T01:19:30;7.40;;;4.40;;
77152;SDS011;66124;51.146;17.072;2023-05-09T01:22:12;6.10;;;4.10;;
77152;SDS011;66124;51.146;17.072;2023-05-09T01:27:49;6.50;;;4.10;;
77152;SDS011;66124;51.146;17.072;2023-05-09T01:30:24;7.10;;;4.10;;
77152;SDS011;66124;51.146;17.072;2023-05-09T01:32:56;7.50;;;4.70;;
77152;SDS011;66124;51.146;17.072;2023-05-09T01:35:30;7.50;;;5.10;;
77152;SDS011;66124;51.146;17.072;2023-05-09T01:38:10;7.30;;;4.80;;
77152;SDS011;66124;51.146;17.072;2023-05-09T01:40:43;7.00;;;4.70;;
77152;SDS011;66124;51.146;17.072;2023-05-09T01:43:15;7.80;;;4.30;;
77152;SDS011;66124;51.146;17.072;2023-05-09T01:45:48;7.70;;;4.70;;
77152;SDS011;66124;51.146;17.072;2023-05-09T01:48:18;6.90;;;4.60;;
77152;SDS011;66124;51.146;17.072;2023-05-09T01:50:50;7.60;;;4.30;;
77152;SDS011;66124;51.146;17.072;2023-05-09T01:53:21;7.60;;;4.20;;
77152;SDS011;66124;51.146;17.072;2023-05-09T01:55:54;7.70;;;4.70;;
77152;SDS011;66124;51.146;17.072;2023-05-09T01:58:25;7.10;;;4.90;;
77152;SDS011;66124;51.146;17.072;2023-05-09T02:00:56;6.40;;;4.80;;
77152;SDS011;66124;51.146;17.072;2023-05-09T02:03:27;9.70;;;5.10;;
77152;SDS011;66124;51.146;17.072;2023-05-09T02:05:57;9.90;;;5.80;;
77152;SDS011;66124;51.146;17.072;2023-05-09T02:08:28;7.80;;;4.60;;
77152;SDS011;66124;51.146;17.072;2023-05-09T02:10:59;7.70;;;4.80;;
77152;SDS011;66124;51.146;17.072;2023-05-09T02:13:28;8.40;;;4.70;;
77152;SDS011;66124;51.146;17.072;2023-05-09T02:15:58;8.50;;;4.90;;
77152;SDS011;66124;51.146;17.072;2023-05-09T02:18:27;9.60;;;5.10;;
77152;SDS011;66124;51.146;17.072;2023-05-09T02:20:57;9.80;;;4.70;;
77152;SDS011;66124;51.146;17.072;2023-05-09T02:23:26;6.80;;;4.00;;
77152;SDS011;66124;51.146;17.072;2023-05-09T02:25:56;8.50;;;4.80;;
77152;SDS011;66124;51.146;17.072;2023-05-09T02:28:26;8.70;;;2.80;;
77152;SDS011;66124;51.146;17.072;2023-05-09T02:36:56;9.40;;;5.20;;
77152;SDS011;66124;51.146;17.072;2023-05-09T02:39:26;7.60;;;5.00;;
77152;SDS011;66124;51.146;17.072;2023-05-09T02:41:55;6.30;;;4.50;;
77152;SDS011;66124;51.146;17.072;2023-05-09T02:44:28;7.10;;;4.60;;
77152;SDS011;66124;51.146;17.072;2023-05-09T02:46:57;8.30;;;4.50;;
77152;SDS011;66124;51.146;17.072;2023-05-09T02:49:27;7.40;;;5.10;;
77152;SDS011;66124;51.146;17.072;2023-05-09T02:51:56;7.30;;;4.30;;
77152;SDS011;66124;51.146;17.072;2023-05-09T02:54:26;8.60;;;4.70;;
77152;SDS011;66124;51.146;17.072;2023-05-09T02:56:56;8.60;;;5.10;;
77152;SDS011;66124;51.146;17.072;2023-05-09T02:59:25;6.90;;;4.40;;
77152;SDS011;66124;51.146;17.072;2023-05-09T03:01:55;9.00;;;5.00;;
77152;SDS011;66124;51.146;17.072;2023-05-09T03:04:24;6.30;;;4.20;;
77152;SDS011;66124;51.146;17.072;2023-05-09T03:06:54;6.60;;;4.90;;
77152;SDS011;66124;51.146;17.072;2023-05-09T03:09:23;8.90;;;5.80;;
77152;SDS011;66124;51.146;17.072;2023-05-09T03:11:53;8.70;;;5.00;;
77152;SDS011;66124;51.146;17.072;2023-05-09T03:14:23;7.50;;;4.70;;
77152;SDS011;66124;51.146;17.072;2023-05-09T03:16:52;7.00;;;4.40;;
77152;SDS011;66124;51.146;17.072;2023-05-09T03:19:21;8.00;;;5.00;;
77152;SDS011;66124;51.146;17.072;2023-05-09T03:21:51;8.30;;;5.20;;
77152;SDS011;66124;51.146;17.072;2023-05-09T03:24:20;8.30;;;4.80;;
77152;SDS011;66124;51.146;17.072;2023-05-09T03:26:50;10.30;;;5.10;;
77152;SDS011;66124;51.146;17.072;2023-05-09T03:29:19;10.20;;;5.30;;
77152;SDS011;66124;51.146;17.072;2023-05-09T03:31:49;8.80;;;4.80;;
77152;SDS011;66124;51.146;17.072;2023-05-09T03:34:18;9.00;;;5.30;;
77152;SDS011;66124;51.146;17.072;2023-05-09T03:36:47;8.40;;;4.90;;
77152;SDS011;66124;51.146;17.072;2023-05-09T03:39:17;9.90;;;6.00;;
77152;SDS011;66124;51.146;17.072;2023-05-09T03:41:46;8.80;;;4.70;;
77152;SDS011;66124;51.146;17.072;2023-05-09T03:44:16;7.10;;;5.00;;
77152;SDS011;66124;51.146;17.072;2023-05-09T03:46:45;8.20;;;4.80;;
77152;SDS011;66124;51.146;17.072;2023-05-09T03:54:25;9.70;;;5.60;;
77152;SDS011;66124;51.146;17.072;2023-05-09T03:56:54;10.00;;;4.90;;
77152;SDS011;66124;51.146;17.072;2023-05-09T03:59:23;9.40;;;5.10;;
77152;SDS011;66124;51.146;17.072;2023-05-09T04:01:53;8.40;;;5.00;;
77152;SDS011;66124;51.146;17.072;2023-05-09T04:04:22;6.80;;;5.10;;
77152;SDS011;66124;51.146;17.072;2023-05-09T04:06:53;7.30;;;4.80;;
77152;SDS011;66124;51.146;17.072;2023-05-09T04:09:22;9.20;;;4.50;;
77152;SDS011;66124;51.146;17.072;2023-05-09T04:11:52;7.50;;;4.50;;
77152;SDS011;66124;51.146;17.072;2023-05-09T04:14:22;6.50;;;4.10;;
77152;SDS011;66124;51.146;17.072;2023-05-09T04:16:51;8.70;;;4.40;;
77152;SDS011;66124;51.146;17.072;2023-05-09T04:19:21;7.80;;;4.30;;
77152;SDS011;66124;51.146;17.072;2023-05-09T04:21:50;7.40;;;4.00;;
77152;SDS011;66124;51.146;17.072;2023-05-09T04:24:19;6.20;;;4.80;;
77152;SDS011;66124;51.146;17.072;2023-05-09T04:26:49;8.20;;;4.50;;
77152;SDS011;66124;51.146;17.072;2023-05-09T04:29:18;5.10;;;4.20;;
77152;SDS011;66124;51.146;17.072;2023-05-09T04:31:47;9.20;;;4.70;;
77152;SDS011;66124;51.146;17.072;2023-05-09T04:34:17;6.60;;;4.30;;
77152;SDS011;66124;51.146;17.072;2023-05-09T04:36:46;6.90;;;4.60;;
77152;SDS011;66124;51.146;17.072;2023-05-09T04:39:16;6.30;;;3.40;;
77152;SDS011;66124;51.146;17.072;2023-05-09T04:41:45;6.10;;;3.70;;
77152;SDS011;66124;51.146;17.072;2023-05-09T04:44:14;7.10;;;4.70;;
77152;SDS011;66124;51.146;17.072;2023-05-09T04:46:44;6.10;;;3.90;;
77152;SDS011;66124;51.146;17.072;2023-05-09T04:49:13;6.40;;;3.50;;
77152;SDS011;66124;51.146;17.072;2023-05-09T04:51:43;6.40;;;3.70;;
77152;SDS011;66124;51.146;17.072;2023-05-09T04:54:12;6.80;;;3.90;;
77152;SDS011;66124;51.146;17.072;2023-05-09T04:56:41;4.30;;;3.50;;
77152;SDS011;66124;51.146;17.072;2023-05-09T04:59:11;6.20;;;3.90;;
77152;SDS011;66124;51.146;17.072;2023-05-09T05:01:40;6.70;;;4.00;;
77152;SDS011;66124;51.146;17.072;2023-05-09T05:04:10;5.00;;;3.50;;
77152;SDS011;66124;51.146;17.072;2023-05-09T05:06:39;5.50;;;2.90;;
77152;SDS011;66124;51.146;17.072;2023-05-09T05:16:32;5.90;;;3.00;;
77152;SDS011;66124;51.146;17.072;2023-05-09T05:19:01;6.20;;;3.60;;
77152;SDS011;66124;51.146;17.072;2023-05-09T05:21:31;6.00;;;3.30;;
77152;SDS011;66124;51.146;17.072;2023-05-09T05:24:00;7.00;;;4.20;;
77152;SDS011;66124;51.146;17.072;2023-05-09T05:26:30;6.20;;;3.20;;
77152;SDS011;66124;51.146;17.072;2023-05-09T05:29:00;7.10;;;4.00;;
77152;SDS011;66124;51.146;17.072;2023-05-09T05:31:30;5.80;;;3.90;;
77152;SDS011;66124;51.146;17.072;2023-05-09T05:33:59;7.10;;;4.00;;
77152;SDS011;66124;51.146;17.072;2023-05-09T05:36:29;4.60;;;3.50;;
77152;SDS011;66124;51.146;17.072;2023-05-09T05:38:58;4.70;;;3.50;;
77152;SDS011;66124;51.146;17.072;2023-05-09T05:41:27;7.50;;;3.70;;
77152;SDS011;66124;51.146;17.072;2023-05-09T05:43:57;7.10;;;3.80;;
77152;SDS011;66124;51.146;17.072;2023-05-09T05:46:27;5.10;;;3.50;;
77152;SDS011;66124;51.146;17.072;2023-05-09T05:48:56;5.40;;;3.70;;
77152;SDS011;66124;51.146;17.072;2023-05-09T05:51:26;4.70;;;4.00;;
77152;SDS011;66124;51.146;17.072;2023-05-09T05:53:55;4.10;;;3.10;;
77152;SDS011;66124;51.146;17.072;2023-05-09T05:56:24;6.00;;;3.30;;
77152;SDS011;66124;51.146;17.072;2023-05-09T05:58:54;4.30;;;3.00;;
77152;SDS011;66124;51.146;17.072;2023-05-09T06:01:24;4.10;;;3.10;;
77152;SDS011;66124;51.146;17.072;2023-05-09T06:03:53;6.10;;;3.50;;
77152;SDS011;66124;51.146;17.072;2023-05-09T06:06:22;4.90;;;3.50;;
77152;SDS011;66124;51.146;17.072;2023-05-09T06:08:52;5.00;;;3.90;;
77152;SDS011;66124;51.146;17.072;2023-05-09T06:11:22;4.30;;;3.30;;
77152;SDS011;66124;51.146;17.072;2023-05-09T06:13:51;4.30;;;3.40;;
77152;SDS011;66124;51.146;17.072;2023-05-09T06:16:21;4.30;;;2.50;;
77152;SDS011;66124;51.146;17.072;2023-05-09T06:18:50;5.20;;;3.50;;
77152;SDS011;66124;51.146;17.072;2023-05-09T06:21:20;4.70;;;3.40;;
77152;SDS011;66124;51.146;17.072;2023-05-09T06:23:49;6.20;;;3.40;;
77152;SDS011;66124;51.146;17.072;2023-05-09T06:26:18;3.90;;;2.60;;
77152;SDS011;66124;51.146;17.072;2023-05-09T06:36:44;5.10;;;3.30;;
77152;SDS011;66124;51.146;17.072;2023-05-09T06:39:13;6.20;;;3.80;;
77152;SDS011;66124;51.146;17.072;2023-05-09T06:41:42;3.70;;;2.70;;
77152;SDS011;66124;51.146;17.072;2023-05-09T06:44:12;3.70;;;2.70;;
77152;SDS011;66124;51.146;17.072;2023-05-09T06:46:41;3.70;;;2.90;;
77152;SDS011;66124;51.146;17.072;2023-05-09T06:49:12;3.70;;;2.90;;
77152;SDS011;66124;51.146;17.072;2023-05-09T06:51:41;4.40;;;2.90;;
77152;SDS011;66124;51.146;17.072;2023-05-09T06:54:11;4.40;;;2.20;;
77152;SDS011;66124;51.146;17.072;2023-05-09T06:56:40;4.90;;;3.00;;
77152;SDS011;66124;51.146;17.072;2023-05-09T06:59:09;2.70;;;2.50;;
77152;SDS011;66124;51.146;17.072;2023-05-09T07:01:39;3.60;;;2.90;;
77152;SDS011;66124;51.146;17.072;2023-05-09T07:04:08;3.90;;;2.70;;
77152;SDS011;66124;51.146;17.072;2023-05-09T07:06:38;4.20;;;3.00;;
77152;SDS011;66124;51.146;17.072;2023-05-09T07:09:07;4.30;;;2.20;;
77152;SDS011;66124;51.146;17.072;2023-05-09T07:11:36;3.40;;;2.50;;
77152;SDS011;66124;51.146;17.072;2023-05-09T07:14:06;3.60;;;2.80;;
77152;SDS011;66124;51.146;17.072;2023-05-09T07:16:36;4.00;;;2.00;;
77152;SDS011;66124;51.146;17.072;2023-05-09T07:19:06;3.50;;;2.60;;
77152;SDS011;66124;51.146;17.072;2023-05-09T07:21:35;4.40;;;2.70;;
77152;SDS011;66124;51.146;17.072;2023-05-09T07:24:05;3.30;;;1.90;;
77152;SDS011;66124;51.146;17.072;2023-05-09T07:26:35;3.50;;;2.70;;
77152;SDS011;66124;51.146;17.072;2023-05-09T07:29:04;3.50;;;2.40;;
77152;SDS011;66124;51.146;17.072;2023-05-09T07:31:34;4.90;;;2.50;;
77152;SDS011;66124;51.146;17.072;2023-05-09T07:34:03;3.00;;;1.90;;
77152;SDS011;66124;51.146;17.072;2023-05-09T07:36:32;4.80;;;2.50;;
77152;SDS011;66124;51.146;17.072;2023-05-09T07:39:02;3.40;;;2.20;;
77152;SDS011;66124;51.146;17.072;2023-05-09T07:41:31;4.70;;;2.20;;
77152;SDS011;66124;51.146;17.072;2023-05-09T07:44:01;3.50;;;2.50;;
77152;SDS011;66124;51.146;17.072;2023-05-09T07:46:30;0.30;;;0.30;;
77152;SDS011;66124;51.146;17.072;2023-05-09T07:56:35;3.50;;;2.30;;
77152;SDS011;66124;51.146;17.072;2023-05-09T07:59:04;4.30;;;2.50;;
77152;SDS011;66124;51.146;17.072;2023-05-09T08:01:34;5.50;;;2.90;;
77152;SDS011;66124;51.146;17.072;2023-05-09T08:04:03;2.70;;;2.10;;
77152;SDS011;66124;51.146;17.072;2023-05-09T08:06:33;3.00;;;2.60;;
77152;SDS011;66124;51.146;17.072;2023-05-09T08:09:03;4.60;;;2.70;;
77152;SDS011;66124;51.146;17.072;2023-05-09T08:11:33;4.30;;;2.50;;
77152;SDS011;66124;51.146;17.072;2023-05-09T08:14:03;5.00;;;2.60;;
77152;SDS011;66124;51.146;17.072;2023-05-09T08:16:32;2.80;;;2.00;;
77152;SDS011;66124;51.146;17.072;2023-05-09T08:19:02;4.10;;;2.50;;
77152;SDS011;66124;51.146;17.072;2023-05-09T08:21:31;3.20;;;2.10;;
77152;SDS011;66124;51.146;17.072;2023-05-09T08:24:00;3.90;;;2.70;;
77152;SDS011;66124;51.146;17.072;2023-05-09T08:26:30;3.10;;;2.50;;
77152;SDS011;66124;51.146;17.072;2023-05-09T08:28:59;3.00;;;1.80;;
77152;SDS011;66124;51.146;17.072;2023-05-09T08:31:29;5.40;;;2.40;;
77152;SDS011;66124;51.146;17.072;2023-05-09T08:33:59;6.00;;;2.50;;
77152;SDS011;66124;51.146;17.072;2023-05-09T08:36:28;3.40;;;1.90;;
77152;SDS011;66124;51.146;17.072;2023-05-09T08:38:57;2.80;;;2.00;;
77152;SDS011;66124;51.146;17.072;2023-05-09T08:41:27;3.80;;;2.30;;
77152;SDS011;66124;51.146;17.072;2023-05-09T08:44:00;2.70;;;1.80;;
77152;SDS011;66124;51.146;17.072;2023-05-09T08:46:30;3.00;;;2.00;;
77152;SDS011;66124;51.146;17.072;2023-05-09T08:49:04;3.10;;;1.90;;
77152;SDS011;66124;51.146;17.072;2023-05-09T08:51:34;4.10;;;2.10;;
77152;SDS011;66124;51.146;17.072;2023-05-09T08:54:04;4.70;;;2.00;;
77152;SDS011;66124;51.146;17.072;2023-05-09T08:56:34;2.40;;;1.90;;
77152;SDS011;66124;51.146;17.072;2023-05-09T08:59:05;3.80;;;1.90;;
77152;SDS011;66124;51.146;17.072;2023-05-09T09:01:39;2.70;;;2.00;;
77152;SDS011;66124;51.146;17.072;2023-05-09T09:04:09;2.50;;;1.80;;
77152;SDS011;66124;51.146;17.072;2023-05-09T09:15:57;2.50;;;1.80;;
77152;SDS011;66124;51.146;17.072;2023-05-09T09:18:28;3.00;;;2.00;;
77152;SDS011;66124;51.146;17.072;2023-05-09T09:21:00;3.20;;;2.20;;
77152;SDS011;66124;51.146;17.072;2023-05-09T09:23:36;5.30;;;1.90;;
77152;SDS011;66124;51.146;17.072;2023-05-09T09:26:08;3.50;;;1.80;;
77152;SDS011;66124;51.146;17.072;2023-05-09T09:28:37;3.70;;;2.10;;
77152;SDS011;66124;51.146;17.072;2023-05-09T09:31:19;4.40;;;2.20;;
77152;SDS011;66124;51.146;17.072;2023-05-09T09:33:49;2.90;;;1.70;;
77152;SDS011;66124;51.146;17.072;2023-05-09T09:36:26;3.10;;;1.90;;
77152;SDS011;66124;51.146;17.072;2023-05-09T09:38:56;2.50;;;1.70;;
77152;SDS011;66124;51.146;17.072;2023-05-09T09:41:30;2.20;;;1.80;;
77152;SDS011;66124;51.146;17.072;2023-05-09T09:44:06;3.60;;;1.90;;
77152;SDS011;66124;51.146;17.072;2023-05-09T09:46:41;3.60;;;1.90;;
77152;SDS011;66124;51.146;17.072;2023-05-09T09:49:12;3.80;;;2.40;;
77152;SDS011;66124;51.146;17.072;2023-05-09T09:51:42;3.50;;;1.90;;
77152;SDS011;66124;51.146;17.072;2023-05-09T09:54:16;4.40;;;2.00;;
77152;SDS011;66124;51.146;17.072;2023-05-09T09:56:46;2.20;;;1.90;;
77152;SDS011;66124;51.146;17.072;2023-05-09T09:59:16;2.50;;;2.00;;
77152;SDS011;66124;51.146;17.072;2023-05-09T10:01:54;2.80;;;1.90;;
77152;SDS011;66124;51.146;17.072;2023-05-09T10:04:27;2.40;;;1.50;;
77152;SDS011;66124;51.146;17.072;2023-05-09T10:06:58;3.00;;;2.10;;
77152;SDS011;66124;51.146;17.072;2023-05-09T10:09:28;3.30;;;1.80;;
77152;SDS011;66124;51.146;17.072;2023-05-09T10:12:00;2.30;;;1.80;;
77152;SDS011;66124;51.146;17.072;2023-05-09T10:14:32;2.40;;;1.90;;
77152;SDS011;66124;51.146;17.072;2023-05-09T10:17:03;2.80;;;1.70;;
77152;SDS011;66124;51.146;17.072;2023-05-09T10:19:33;4.00;;;2.10;;
77152;SDS011;66124;51.146;17.072;2023-05-09T10:22:04;2.60;;;1.70;;
77152;SDS011;66124;51.146;17.072;2023-05-09T10:24:39;2.80;;;1.90;;
77152;SDS011;66124;51.146;17.072;2023-05-09T10:36:31;3.40;;;1.90;;
77152;SDS011;66124;51.146;17.072;2023-05-09T10:39:01;3.70;;;2.00;;
77152;SDS011;66124;51.146;17.072;2023-05-09T10:41:31;4.40;;;1.90;;
77152;SDS011;66124;51.146;17.072;2023-05-09T10:44:02;3.10;;;2.10;;
77152;SDS011;66124;51.146;17.072;2023-05-09T10:46:32;2.80;;;1.90;;
77152;SDS011;66124;51.146;17.072;2023-05-09T10:49:02;3.00;;;2.20;;
77152;SDS011;66124;51.146;17.072;2023-05-09T10:51:32;3.20;;;1.90;;
77152;SDS011;66124;51.146;17.072;2023-05-09T10:54:01;3.70;;;2.20;;
77152;SDS011;66124;51.146;17.072;2023-05-09T10:56:41;3.00;;;1.80;;
77152;SDS011;66124;51.146;17.072;2023-05-09T11:02:00;3.20;;;1.70;;
77152;SDS011;66124;51.146;17.072;2023-05-09T11:04:30;2.60;;;2.00;;
77152;SDS011;66124;51.146;17.072;2023-05-09T11:07:00;1.90;;;1.30;;
77152;SDS011;66124;51.146;17.072;2023-05-09T11:09:30;2.10;;;1.90;;
77152;SDS011;66124;51.146;17.072;2023-05-09T11:12:06;2.10;;;1.90;;
77152;SDS011;66124;51.146;17.072;2023-05-09T11:14:40;3.60;;;2.20;;
77152;SDS011;66124;51.146;17.072;2023-05-09T11:17:11;4.00;;;1.70;;
77152;SDS011;66124;51.146;17.072;2023-05-09T11:19:57;3.60;;;1.80;;
77152;SDS011;66124;51.146;17.072;2023-05-09T11:22:37;7.50;;;2.10;;
77152;SDS011;66124;51.146;17.072;2023-05-09T11:25:08;3.20;;;1.90;;
77152;SDS011;66124;51.146;17.072;2023-05-09T11:27:40;1.80;;;1.60;;
77152;SDS011;66124;51.146;17.072;2023-05-09T11:30:12;3.00;;;2.30;;
77152;SDS011;66124;51.146;17.072;2023-05-09T11:32:44;2.40;;;2.00;;
77152;SDS011;66124;51.146;17.072;2023-05-09T11:35:15;2.50;;;1.80;;
77152;SDS011;66124;51.146;17.072;2023-05-09T11:37:46;3.20;;;1.80;;
77152;SDS011;66124;51.146;17.072;2023-05-09T11:40:17;3.10;;;2.00;;
77152;SDS011;66124;51.146;17.072;2023-05-09T11:42:48;3.90;;;2.00;;
77152;SDS011;66124;51.146;17.072;2023-05-09T11:45:18;2.00;;;1.70;;
77152;SDS011;66124;51.146;17.072;2023-05-09T11:47:49;3.10;;;2.30;;
77152;SDS011;66124;51.146;17.072;2023-05-09T11:56:25;3.60;;;1.80;;
77152;SDS011;66124;51.146;17.072;2023-05-09T11:58:56;2.80;;;1.90;;
77152;SDS011;66124;51.146;17.072;2023-05-09T12:01:27;5.90;;;2.50;;
77152;SDS011;66124;51.146;17.072;2023-05-09T12:03:57;3.40;;;2.20;;
77152;SDS011;66124;51.146;17.072;2023-05-09T12:06:28;4.10;;;2.20;;
77152;SDS011;66124;51.146;17.072;2023-05-09T12:08:57;2.60;;;1.70;;
77152;SDS011;66124;51.146;17.072;2023-05-09T12:11:27;3.40;;;1.90;;
77152;SDS011;66124;51.146;17.072;2023-05-09T12:13:57;3.20;;;2.10;;
77152;SDS011;66124;51.146;17.072;2023-05-09T12:16:26;5.20;;;2.20;;
77152;SDS011;66124;51.146;17.072;2023-05-09T12:18:56;2.20;;;2.00;;
77152;SDS011;66124;51.146;17.072;2023-05-09T12:21:25;3.00;;;1.60;;
77152;SDS011;66124;51.146;17.072;2023-05-09T12:23:55;2.60;;;1.80;;
77152;SDS011;66124;51.146;17.072;2023-05-09T12:26:25;2.30;;;1.50;;
77152;SDS011;66124;51.146;17.072;2023-05-09T12:28:55;2.30;;;1.60;;
77152;SDS011;66124;51.146;17.072;2023-05-09T12:31:25;2.30;;;1.80;;
77152;SDS011;66124;51.146;17.072;2023-05-09T12:33:54;3.60;;;1.80;;
77152;SDS011;66124;51.146;17.072;2023-05-09T12:36:24;3.70;;;1.80;;
77152;SDS011;66124;51.146;17.072;2023-05-09T12:38:54;3.20;;;1.70;;
77152;SDS011;66124;51.146;17.072;2023-05-09T12:41:23;3.20;;;1.80;;
77152;SDS011;66124;51.146;17.072;2023-05-09T12:43:52;3.20;;;1.80;;
77152;SDS011;66124;51.146;17.072;2023-05-09T12:46:22;4.30;;;1.70;;
77152;SDS011;66124;51.146;17.072;2023-05-09T12:48:52;3.10;;;1.60;;
77152;SDS011;66124;51.146;17.072;2023-05-09T12:51:22;4.50;;;2.10;;
77152;SDS011;66124;51.146;17.072;2023-05-09T12:53:52;3.00;;;1.80;;
77152;SDS011;66124;51.146;17.072;2023-05-09T12:56:21;3.40;;;1.70;;
77152;SDS011;66124;51.146;17.072;2023-05-09T12:58:51;2.80;;;1.80;;
77152;SDS011;66124;51.146;17.072;2023-05-09T13:01:21;4.20;;;2.10;;
77152;SDS011;66124;51.146;17.072;2023-05-09T13:04:00;2.70;;;1.80;;
77152;SDS011;66124;51.146;17.072;2023-05-09T13:06:30;2.90;;;1.80;;
77152;SDS011;66124;51.146;17.072;2023-05-09T13:16:53;3.00;;;1.80;;
77152;SDS011;66124;51.146;17.072;2023-05-09T13:19:22;5.50;;;1.90;;
77152;SDS011;66124;51.146;17.072;2023-05-09T13:21:52;5.20;;;2.30;;
77152;SDS011;66124;51.146;17.072;2023-05-09T13:26:50;3.10;;;1.90;;
77152;SDS011;66124;51.146;17.072;2023-05-09T13:29:21;2.70;;;1.70;;
77152;SDS011;66124;51.146;17.072;2023-05-09T13:31:51;3.90;;;1.70;;
77152;SDS011;66124;51.146;17.072;2023-05-09T13:34:20;5.20;;;1.80;;
77152;SDS011;66124;51.146;17.072;2023-05-09T13:36:50;3.30;;;1.80;;
77152;SDS011;66124;51.146;17.072;2023-05-09T13:39:19;4.30;;;1.90;;
77152;SDS011;66124;51.146;17.072;2023-05-09T13:41:49;2.40;;;1.80;;
77152;SDS011;66124;51.146;17.072;2023-05-09T13:44:18;2.40;;;1.70;;
77152;SDS011;66124;51.146;17.072;2023-05-09T13:46:48;3.00;;;1.80;;
77152;SDS011;66124;51.146;17.072;2023-05-09T13:49:17;3.10;;;2.00;;
77152;SDS011;66124;51.146;17.072;2023-05-09T13:51:47;3.10;;;1.70;;
77152;SDS011;66124;51.146;17.072;2023-05-09T13:54:16;3.00;;;1.80;;
77152;SDS011;66124;51.146;17.072;2023-05-09T13:56:45;2.60;;;1.80;;
77152;SDS011;66124;51.146;17.072;2023-05-09T13:59:15;2.40;;;2.00;;
77152;SDS011;66124;51.146;17.072;2023-05-09T14:01:44;3.40;;;1.80;;
77152;SDS011;66124;51.146;17.072;2023-05-09T14:04:14;2.50;;;2.00;;
77152;SDS011;66124;51.146;17.072;2023-05-09T14:06:43;2.50;;;2.10;;
77152;SDS011;66124;51.146;17.072;2023-05-09T14:09:13;3.60;;;1.90;;
77152;SDS011;66124;51.146;17.072;2023-05-09T14:11:42;4.50;;;2.00;;
77152;SDS011;66124;51.146;17.072;2023-05-09T14:14:11;3.40;;;2.30;;
77152;SDS011;66124;51.146;17.072;2023-05-09T14:16:41;3.50;;;2.10;;
77152;SDS011;66124;51.146;17.072;2023-05-09T14:19:10;3.00;;;1.90;;
77152;SDS011;66124;51.146;17.072;2023-05-09T14:21:40;5.10;;;2.70;;
77152;SDS011;66124;51.146;17.072;2023-05-09T14:24:10;3.40;;;2.30;;
77152;SDS011;66124;51.146;17.072;2023-05-09T14:26:39;1.90;;;1.30;;
77152;SDS011;66124;51.146;17.072;2023-05-09T14:37:03;3.10;;;2.50;;
77152;SDS011;66124;51.146;17.072;2023-05-09T14:39:31;2.80;;;2.20;;
77152;SDS011;66124;51.146;17.072;2023-05-09T14:41:58;2.80;;;2.30;;
77152;SDS011;66124;51.146;17.072;2023-05-09T14:44:26;3.60;;;2.30;;
77152;SDS011;66124;51.146;17.072;2023-05-09T14:46:53;3.80;;;2.40;;
77152;SDS011;66124;51.146;17.072;2023-05-09T14:49:20;3.60;;;3.80;;
77152;SDS011;66124;51.146;17.072;2023-05-09T14:51:48;3.40;;;2.40;;
77152;SDS011;66124;51.146;17.072;2023-05-09T14:54:15;3.40;;;2.50;;
77152;SDS011;66124;51.146;17.072;2023-05-09T15:06:17;4.00;;;2.10;;
77152;SDS011;66124;51.146;17.072;2023-05-09T15:08:47;2.70;;;2.10;;
77152;SDS011;66124;51.146;17.072;2023-05-09T15:11:16;3.60;;;2.10;;
77152;SDS011;66124;51.146;17.072;2023-05-09T15:13:46;4.10;;;2.60;;
77152;SDS011;66124;51.146;17.072;2023-05-09T15:16:17;3.40;;;2.00;;
77152;SDS011;66124;51.146;17.072;2023-05-09T15:18:47;2.80;;;2.00;;
77152;SDS011;66124;51.146;17.072;2023-05-09T15:21:16;3.50;;;2.20;;
77152;SDS011;66124;51.146;17.072;2023-05-09T15:23:46;4.10;;;2.40;;
77152;SDS011;66124;51.146;17.072;2023-05-09T15:26:15;3.10;;;2.00;;
77152;SDS011;66124;51.146;17.072;2023-05-09T15:28:44;2.90;;;2.30;;
77152;SDS011;66124;51.146;17.072;2023-05-09T15:31:14;4.00;;;2.30;;
77152;SDS011;66124;51.146;17.072;2023-05-09T15:33:43;3.20;;;1.90;;
77152;SDS011;66124;51.146;17.072;2023-05-09T15:36:13;4.40;;;2.40;;
77152;SDS011;66124;51.146;17.072;2023-05-09T15:38:42;3.30;;;2.20;;
77152;SDS011;66124;51.146;17.072;2023-05-09T15:41:12;2.60;;;2.10;;
77152;SDS011;66124;51.146;17.072;2023-05-09T15:43:41;4.60;;;2.10;;
77152;SDS011;66124;51.146;17.072;2023-05-09T15:46:11;3.50;;;2.10;;
77152;SDS011;66124;51.146;17.072;2023-05-09T15:48:40;4.60;;;2.20;;
77152;SDS011;66124;51.146;17.072;2023-05-09T15:51:09;2.70;;;2.10;;
77152;SDS011;66124;51.146;17.072;2023-05-09T15:53:39;3.30;;;2.10;;
77152;SDS011;66124;51.146;17.072;2023-05-09T15:56:09;3.30;;;2.10;;
77152;SDS011;66124;51.146;17.072;2023-05-09T15:58:38;2.40;;;2.10;;
77152;SDS011;66124;51.146;17.072;2023-05-09T16:01:07;3.40;;;2.50;;
77152;SDS011;66124;51.146;17.072;2023-05-09T16:03:37;3.40;;;2.20;;
77152;SDS011;66124;51.146;17.072;2023-05-09T16:06:06;3.50;;;2.30;;
77152;SDS011;66124;51.146;17.072;2023-05-09T16:08:36;2.90;;;2.00;;
77152;SDS011;66124;51.146;17.072;2023-05-09T16:11:05;4.20;;;2.10;;
77152;SDS011;66124;51.146;17.072;2023-05-09T16:13:34;3.90;;;2.20;;
77152;SDS011;66124;51.146;17.072;2023-05-09T16:16:04;3.20;;;2.60;;
77152;SDS011;66124;51.146;17.072;2023-05-09T16:26:09;3.40;;;2.20;;
77152;SDS011;66124;51.146;17.072;2023-05-09T16:28:38;3.50;;;2.10;;
77152;SDS011;66124;51.146;17.072;2023-05-09T16:31:08;2.60;;;2.00;;
77152;SDS011;66124;51.146;17.072;2023-05-09T16:33:38;3.20;;;2.00;;